Eckerman, MI

2:33 PM EST on December 27, 2014 (GMT -0500)
Luce County | Change Station
CLOSE
Current Station
Airport
Location: Newberry,
Elevation: 869 ft
Nearby Weather Stations

Elev 869 ft 46.31 °N, 85.46 °W | Updated 18 minutes ago

Snow
Snow
32 °F
Feels Like 25 °F
N
8
Wind Variable Wind from NNW

Today
High -- | Low -- °F
--% Chance of Precip.
Yesterday
High -- | Low -- °F
Precip. -- in
8:23 AM 5:00 PM
Waxing Crescent, 39% visible
Pressure 29.71 in
Visibility 2.5 miles
Clouds Mostly Cloudy 600 ft
Overcast 2000 ft
Windchill 25 °F
Dew Point 32 °F
Humidity 100%
Rainfall 0.30 in
Snow Depth Not available.
UV 0 out of 12
Pollen .10 out of 12
Air Quality Not available.
Flu Activity Not available.
METAR KERY 271915Z AUTO 34007KT 2 1/2SM -SN BKN006 OVC020 00/00 A2971 RMK AO2 T10011001

More Conditions Fewer Conditions

Pressure 29.71 in
Visibility 2.5 miles
Clouds Mostly Cloudy 600 ft
Overcast 2000 ft
Windchill 25 °F
Dew Point 32 °F
Humidity 100%
Rainfall 0.30 in
Snow Depth Not available.
UV 0 out of 12
Pollen .10 out of 12
Air Quality Not available.
Flu Activity Not available.
METAR KERY 271915Z AUTO 34007KT 2 1/2SM -SN BKN006 OVC020 00/00 A2971 RMK AO2 T10011001

More Conditions Fewer Conditions

Nowcast | as of 2:00 PM EST on December 27, 2014

At 3 PM...areas of fog. Showers and snow showers. Temperature 34. Northeast winds 6 mph. At 5 PM...areas of fog. Snow showers likely. Temperature 33. North winds 9 mph. At 7 PM...cloudy. Scattered snow showers. Temperature 32. Northwest winds 15 mph. At 9 PM...cloudy. Scattered snow showers. Temperature 31. Northwest winds 16 mph.

×

10-Day Weather Forecast

Almanac

Astronomy

Dec. 27, 2014 Rise Set
Actual Time
Civil Twilight
Nautical Twilight
Astronomical Twilight
Moon
Length of Visible Light
Length of Day
Tomorrow will be .
, % of the Moon is Illuminated

Today's Extremes

State Highs State Lows

Community

WunderPhotos

Upload Photos

1,781,027 photos uploaded!

WunderBlogs® & News

Nearby

Air Quality

  Air Quality AQ Index Pollutant
Not available.

Snow Depth

Station Depth Elevation

Earthquake Activity

City Distance Mag. Time & Date
Minimum magnitude displayed is 2.5.

Coastal Water Temperatures

Place Temperature

Nearby Weather Stations